Time;durP1;ratioP1;P1;durP2;ratioP2;P2;SDS_P1;SDS_P2;PMS_P1;PMS_P2;Temp;Humidity;BMP_temperature;BMP_pressure;BME280_temperature;BME280_humidity;BME280_pressure;Samples;Min_cycle;Max_cycle;Signal;HPM_P1;HPM_P2
2021/12/27 00:00:36;;;;;;;1.40;1.30;;;;;;;1.81;100.00;100225.75;6245464;23;20004;-78
2021/12/27 00:03:03;;;;;;;2.53;2.40;;;;;;;1.70;100.00;100219.84;6245142;23;20020;-78
2021/12/27 00:05:30;;;;;;;1.38;1.35;;;;;;;1.82;100.00;100221.38;6245470;23;20008;-77
2021/12/27 00:07:55;;;;;;;1.60;1.50;;;;;;;1.78;100.00;100215.31;6245551;23;20412;-78
2021/12/27 00:10:24;;;;;;;2.20;2.10;;;;;;;1.76;100.00;100216.25;6245615;23;20011;-77
2021/12/27 00:12:53;;;;;;;2.30;2.20;;;;;;;1.81;100.00;100214.41;6245731;23;20037;-78
2021/12/27 00:15:18;;;;;;;1.27;1.27;;;;;;;1.86;100.00;100213.44;6245288;23;20011;-78
2021/12/27 00:17:46;;;;;;;1.75;1.65;;;;;;;1.79;100.00;100213.56;6245117;23;20239;-78
2021/12/27 00:20:16;;;;;;;1.95;1.85;;;;;;;1.78;100.00;100209.22;6246118;23;20083;-78
2021/12/27 00:22:43;;;;;;;1.50;1.40;;;;;;;1.93;100.00;100208.94;6245366;23;20014;-78
2021/12/27 00:25:09;;;;;;;2.00;1.90;;;;;;;1.86;100.00;100200.34;6245790;23;20008;-78
2021/12/27 00:27:41;;;;;;;2.47;2.33;;;;;;;1.82;100.00;100201.28;6245777;23;20416;-78
2021/12/27 00:30:09;;;;;;;3.28;3.08;;;;;;;1.76;100.00;100201.41;6244551;23;20446;-79
2021/12/27 01:29:48;;;;;;;1.80;1.70;;;;;;;2.06;100.00;100158.97;6249906;22;20098;-79
2021/12/27 01:32:14;;;;;;;2.40;2.30;;;;;;;2.07;100.00;100160.66;6245360;23;20020;-78
2021/12/27 01:34:39;;;;;;;1.50;1.40;;;;;;;2.12;100.00;100161.44;6245969;23;20000;-78
2021/12/27 01:37:06;;;;;;;2.08;1.98;;;;;;;2.05;100.00;100148.50;6245011;23;20076;-78
2021/12/27 01:39:31;;;;;;;1.50;1.40;;;;;;;2.09;100.00;100152.78;6246537;23;20070;-79
2021/12/27 01:41:56;;;;;;;1.63;1.52;;;;;;;2.10;100.00;100150.13;6246233;23;20424;-79
2021/12/27 01:44:24;;;;;;;1.80;1.70;;;;;;;2.04;100.00;100147.63;6247415;23;20074;-78
2021/12/27 01:46:51;;;;;;;2.05;1.95;;;;;;;2.12;100.00;100152.72;6220477;23;20032;-79
2021/12/27 01:49:17;;;;;;;1.33;1.27;;;;;;;2.12;100.00;100155.34;6246966;23;20420;-79
2021/12/27 01:51:44;;;;;;;1.85;1.75;;;;;;;2.15;100.00;100158.78;6246734;23;20012;-78
2021/12/27 01:54:11;;;;;;;1.48;1.38;;;;;;;2.17;100.00;100154.38;6247054;23;20012;-78
2021/12/27 01:56:36;;;;;;;1.30;1.27;;;;;;;2.17;100.00;100156.13;6247560;23;20079;-79
2021/12/27 01:59:03;;;;;;;1.50;1.40;;;;;;;2.24;100.00;100150.72;6247500;23;20008;-78
2021/12/27 02:01:28;;;;;;;1.30;1.30;;;;;;;2.29;100.00;100145.38;6247453;23;20089;-78
2021/12/27 02:03:55;;;;;;;3.25;3.05;;;;;;;2.27;100.00;100157.69;6244691;23;20004;-77
2021/12/27 02:06:22;;;;;;;1.95;1.85;;;;;;;2.35;100.00;100159.22;6247210;23;20000;-78
2021/12/27 02:08:47;;;;;;;1.25;1.25;;;;;;;2.25;100.00;100162.94;6247045;23;20070;-78
2021/12/27 02:11:15;;;;;;;1.52;1.42;;;;;;;2.24;100.00;100161.19;6247385;23;20004;-78
2021/12/27 02:13:43;;;;;;;1.00;1.00;;;;;;;2.40;100.00;100154.75;6247220;23;20015;-78
2021/12/27 02:16:16;;;;;;;1.38;1.33;;;;;;;2.24;100.00;100161.19;6247592;23;20004;-77
2021/12/27 02:18:47;;;;;;;1.63;1.40;;;;;;;2.36;100.00;100166.22;6247245;23;19996;-78
2021/12/27 02:21:16;;;;;;;2.05;1.10;;;;;;;2.39;100.00;100158.28;6219651;23;20012;-79
2021/12/27 02:23:42;;;;;;;1.40;1.33;;;;;;;2.37;100.00;100162.69;6245968;23;20459;-78
2021/12/27 02:26:09;;;;;;;1.40;1.30;;;;;;;2.39;100.00;100167.91;6246570;23;20004;-79
2021/12/27 02:28:34;;;;;;;1.48;1.40;;;;;;;2.41;100.00;100164.34;6247125;23;20008;-78
2021/12/27 02:31:00;;;;;;;1.40;1.30;;;;;;;2.48;100.00;100163.31;6247008;23;20073;-78
2021/12/27 02:33:26;;;;;;;1.75;1.65;;;;;;;2.29;100.00;100168.97;6247275;23;20018;-78
2021/12/27 02:35:59;;;;;;;2.22;2.13;;;;;;;2.40;100.00;100173.09;6246979;23;20028;-78
2021/12/27 02:38:27;;;;;;;1.95;1.55;;;;;;;2.35;100.00;100176.72;6246944;23;20011;-78
2021/12/27 02:40:53;;;;;;;1.90;1.80;;;;;;;2.37;100.00;100169.69;6246332;23;20104;-78
2021/12/27 02:43:22;;;;;;;3.47;2.50;;;;;;;2.35;100.00;100169.72;6246828;23;20004;-78
2021/12/27 02:45:56;;;;;;;1.60;1.50;;;;;;;2.43;100.00;100173.03;6246711;23;20008;-78
2021/12/27 02:48:25;;;;;;;2.33;2.17;;;;;;;2.54;100.00;100173.69;6247268;23;20042;-78
2021/12/27 02:50:52;;;;;;;1.40;1.30;;;;;;;2.49;100.00;100167.66;6245937;23;20442;-78
2021/12/27 02:53:20;;;;;;;3.03;2.83;;;;;;;2.48;100.00;100162.44;6246775;23;20004;-78
2021/12/27 02:55:48;;;;;;;3.08;2.22;;;;;;;2.49;100.00;100156.34;6246672;23;20011;-78
2021/12/27 02:58:13;;;;;;;2.05;1.95;;;;;;;2.44;100.00;100161.66;6246744;23;20050;-78
2021/12/27 03:00:55;;;;;;;1.85;1.75;;;;;;;2.48;100.00;100158.09;6246347;23;20004;-78
2021/12/27 03:03:21;;;;;;;2.00;1.90;;;;;;;2.47;100.00;100153.75;6246535;23;20059;-78
2021/12/27 03:05:47;;;;;;;1.90;1.80;;;;;;;2.52;100.00;100151.03;6246183;23;19996;-78
2021/12/27 03:08:14;;;;;;;1.92;1.83;;;;;;;2.62;100.00;100150.78;6246575;23;20004;-78
2021/12/27 03:10:51;;;;;;;2.85;2.70;;;;;;;2.55;100.00;100151.81;6246481;23;20000;-79
2021/12/27 03:13:20;;;;;;;3.53;2.80;;;;;;;2.54;100.00;100147.47;6219732;23;20395;-78
2021/12/27 03:15:50;;;;;;;2.65;2.47;;;;;;;2.52;100.00;100149.25;6246250;23;20004;-78
2021/12/27 03:18:16;;;;;;;3.50;3.25;;;;;;;2.56;100.00;100137.81;6245787;23;19996;-77
2021/12/27 03:20:41;;;;;;;2.47;2.28;;;;;;;2.57;100.00;100141.31;6246312;23;20414;-78
2021/12/27 03:23:07;;;;;;;3.00;2.80;;;;;;;2.63;100.00;100144.63;6246557;23;20004;-78
2021/12/27 03:25:33;;;;;;;1.50;1.40;;;;;;;2.67;100.00;100143.69;6245537;23;20438;-77
2021/12/27 03:28:10;;;;;;;1.73;1.63;;;;;;;2.67;100.00;100130.59;6245970;23;20447;-77
2021/12/27 03:30:36;;;;;;;1.50;1.40;;;;;;;2.64;100.00;100133.28;6246378;23;20019;-77
2021/12/27 03:33:05;;;;;;;1.88;1.77;;;;;;;2.63;100.00;100126.28;6246496;23;20361;-78
2021/12/27 03:35:34;;;;;;;1.93;1.83;;;;;;;2.56;100.00;100127.34;6246602;23;20054;-78
2021/12/27 03:38:02;;;;;;;1.60;1.50;;;;;;;2.52;100.00;100128.28;6246276;23;20011;-78
2021/12/27 03:40:27;;;;;;;2.33;2.22;;;;;;;2.61;100.00;100138.59;6245886;23;20004;-77
2021/12/27 03:42:54;;;;;;;1.52;1.42;;;;;;;2.54;100.00;100130.88;6218670;23;20348;-78
2021/12/27 03:45:35;;;;;;;1.80;1.70;;;;;;;2.54;100.00;100129.13;6246137;23;20008;-77
2021/12/27 03:48:01;;;;;;;1.75;1.65;;;;;;;2.73;100.00;100135.69;6245757;23;20031;-77
2021/12/27 03:50:36;;;;;;;1.75;1.65;;;;;;;2.66;100.00;100131.47;6219128;23;20008;-78
2021/12/27 03:53:02;;;;;;;1.95;1.85;;;;;;;2.65;100.00;100128.88;6244818;23;20094;-77
2021/12/27 03:55:29;;;;;;;2.47;2.38;;;;;;;2.67;100.00;100127.97;6246251;23;20000;-77
2021/12/27 03:58:05;;;;;;;2.10;2.00;;;;;;;2.66;100.00;100128.84;6246738;23;20004;-78
2021/12/27 04:00:45;;;;;;;1.42;1.33;;;;;;;2.67;100.00;100127.97;6246381;23;20014;-78
2021/12/27 04:03:10;;;;;;;1.75;1.65;;;;;;;2.71;100.00;100118.28;6245717;23;20012;-77
2021/12/27 04:05:36;;;;;;;1.50;1.40;;;;;;;2.74;100.00;100123.44;6246495;23;20423;-78
2021/12/27 04:08:09;;;;;;;1.48;1.40;;;;;;;2.77;100.00;100118.97;6246209;23;20039;-78
2021/12/27 04:10:34;;;;;;;2.03;1.92;;;;;;;2.68;100.00;100121.81;6246097;23;20023;-77
2021/12/27 04:13:00;;;;;;;1.58;1.48;;;;;;;2.72;100.00;100114.75;6245997;23;20420;-77
2021/12/27 04:15:25;;;;;;;1.08;1.08;;;;;;;2.71;100.00;100123.53;6245605;23;20079;-77
2021/12/27 04:17:51;;;;;;;2.08;1.98;;;;;;;2.70;100.00;100112.16;6245149;23;20083;-77
2021/12/27 04:20:17;;;;;;;1.58;1.48;;;;;;;2.72;100.00;100115.63;6245758;23;20007;-77
2021/12/27 04:22:42;;;;;;;1.63;1.52;;;;;;;2.81;100.00;100114.53;6245280;23;20004;-77
2021/12/27 04:25:08;;;;;;;2.78;2.58;;;;;;;2.90;100.00;100109.94;6245310;23;20015;-77
2021/12/27 04:27:33;;;;;;;1.55;1.45;;;;;;;2.80;100.00;100110.19;6245831;23;20062;-77
2021/12/27 04:29:58;;;;;;;1.70;1.60;;;;;;;2.89;100.00;100108.22;6245006;23;20071;-77
2021/12/27 04:32:24;;;;;;;2.22;2.13;;;;;;;2.85;100.00;100103.94;6245077;23;20008;-78
2021/12/27 04:34:49;;;;;;;2.25;2.15;;;;;;;2.90;100.00;100098.56;6245111;23;20069;-77
2021/12/27 04:37:15;;;;;;;1.25;1.20;;;;;;;2.77;100.00;100087.50;6245806;23;20316;-78
2021/12/27 04:39:40;;;;;;;2.45;2.25;;;;;;;2.81;100.00;100091.81;6245420;23;20039;-77
2021/12/27 04:42:07;;;;;;;1.63;1.52;;;;;;;2.82;100.00;100098.75;6245370;23;20011;-78
2021/12/27 04:44:35;;;;;;;1.98;1.88;;;;;;;2.82;100.00;100090.91;6245800;23;20011;-77
2021/12/27 04:47:01;;;;;;;2.17;2.03;;;;;;;2.82;100.00;100097.94;6244476;23;20015;-77
2021/12/27 04:49:26;;;;;;;2.38;2.17;;;;;;;2.85;100.00;100093.44;6244964;23;20010;-77
2021/12/27 04:51:52;;;;;;;1.17;1.17;;;;;;;2.90;100.00;100107.31;6244894;23;20368;-77
2021/12/27 04:54:17;;;;;;;2.53;2.38;;;;;;;2.85;100.00;100111.81;6245278;23;20008;-78
2021/12/27 04:56:43;;;;;;;1.55;1.45;;;;;;;2.90;100.00;100099.44;6245258;23;20004;-77
2021/12/27 04:59:08;;;;;;;1.40;1.30;;;;;;;2.84;100.00;100099.59;6244838;23;20032;-79
2021/12/27 05:01:34;;;;;;;1.60;1.50;;;;;;;2.97;100.00;100103.66;6245127;23;20004;-79
2021/12/27 05:03:59;;;;;;;1.67;1.58;;;;;;;2.92;100.00;100100.28;6244922;23;20001;-77
2021/12/27 05:06:33;;;;;;;2.08;1.98;;;;;;;2.98;100.00;100104.50;6244346;23;20012;-76
2021/12/27 05:08:58;;;;;;;2.28;2.17;;;;;;;2.97;100.00;100092.31;6244832;23;20004;-77
2021/12/27 05:11:23;;;;;;;3.25;2.05;;;;;;;2.95;100.00;100092.34;6244564;23;20000;-76
2021/12/27 05:13:49;;;;;;;2.58;2.47;;;;;;;2.93;100.00;100082.81;6244882;23;20059;-77
2021/12/27 05:16:14;;;;;;;3.33;3.13;;;;;;;2.98;100.00;100086.16;6219412;23;20008;-77
2021/12/27 05:18:40;;;;;;;1.70;1.60;;;;;;;2.92;100.00;100108.16;6246436;23;20050;-77
2021/12/27 05:21:05;;;;;;;2.03;1.77;;;;;;;2.94;100.00;100111.63;6244574;23;20000;-76
2021/12/27 05:23:31;;;;;;;2.80;2.63;;;;;;;2.95;100.00;100118.56;6245552;23;20011;-76
2021/12/27 05:25:57;;;;;;;1.10;1.10;;;;;;;2.98;100.00;100118.50;6247123;23;20023;-77
2021/12/27 05:28:28;;;;;;;1.48;1.38;;;;;;;3.02;100.00;100121.91;6246721;23;20008;-77
2021/12/27 05:30:53;;;;;;;2.00;1.90;;;;;;;3.06;100.00;100115.69;6246967;23;20012;-77
2021/12/27 05:33:19;;;;;;;1.63;1.52;;;;;;;3.12;100.00;100105.91;6246726;23;20004;-77
2021/12/27 05:36:00;;;;;;;1.30;1.20;;;;;;;3.06;100.00;100107.81;6246701;23;20007;-77
2021/12/27 05:38:25;;;;;;;1.77;1.67;;;;;;;3.13;100.00;100101.53;6246755;23;20066;-76
2021/12/27 05:41:03;;;;;;;2.00;1.90;;;;;;;3.13;100.00;100102.41;6246208;23;20005;-76
2021/12/27 05:43:28;;;;;;;2.38;2.20;;;;;;;3.12;100.00;100103.28;6246684;23;20624;-77
2021/12/27 05:45:54;;;;;;;1.90;1.80;;;;;;;3.12;100.00;100099.78;6245860;23;20004;-77
2021/12/27 05:48:19;;;;;;;2.60;2.42;;;;;;;3.13;100.00;100105.03;6245548;23;20079;-76
2021/12/27 05:50:44;;;;;;;2.42;2.33;;;;;;;3.13;100.00;100107.66;6246736;23;20000;-77
2021/12/27 05:53:10;;;;;;;1.98;1.88;;;;;;;3.10;100.00;100117.34;6246384;23;20042;-77
2021/12/27 05:55:36;;;;;;;1.58;1.48;;;;;;;3.09;100.00;100108.59;6245677;23;20046;-77
2021/12/27 05:58:03;;;;;;;2.53;2.38;;;;;;;3.29;100.00;100116.00;6245322;23;20004;-77
2021/12/27 06:00:29;;;;;;;2.05;1.95;;;;;;;3.33;100.00;100108.88;6246788;23;20019;-77
2021/12/27 06:02:58;;;;;;;1.30;1.27;;;;;;;3.44;100.00;100115.59;6245806;23;20011;-77
2021/12/27 06:05:24;;;;;;;1.25;1.20;;;;;;;3.35;100.00;100115.84;6246548;23;20011;-77
2021/12/27 06:07:59;;;;;;;2.78;2.58;;;;;;;3.42;100.00;100121.81;6244993;23;20332;-77
2021/12/27 06:10:42;;;;;;;2.58;2.40;;;;;;;3.47;100.00;100119.94;6245459;23;20024;-77
2021/12/27 06:14:04;;;;;;;2.67;2.47;;;;;;;3.58;100.00;100117.91;6245575;23;20011;-77
2021/12/27 06:16:35;;;;;;;2.55;2.35;;;;;;;3.67;100.00;100117.66;6245515;23;20008;-77
2021/12/27 06:19:00;;;;;;;1.50;1.42;;;;;;;3.81;100.00;100120.78;6245875;23;20028;-77
2021/12/27 06:21:33;;;;;;;2.30;2.20;;;;;;;3.85;100.00;100114.50;6246132;23;20031;-77
2021/12/27 06:24:00;;;;;;;2.15;2.05;;;;;;;3.82;100.00;100112.84;6245795;23;20004;-75
2021/12/27 06:26:34;;;;;;;2.65;2.50;;;;;;;3.86;100.00;100105.75;6246006;23;20000;-76
2021/12/27 06:29:03;;;;;;;3.00;2.80;;;;;;;3.91;100.00;100114.34;6245062;23;20019;-77
2021/12/27 06:31:28;;;;;;;2.35;2.25;;;;;;;3.93;100.00;100115.16;6218320;23;20027;-77
2021/12/27 06:34:06;;;;;;;1.58;1.48;;;;;;;3.95;100.00;100113.38;6245800;23;20420;-75
2021/12/27 06:36:32;;;;;;;3.63;3.42;;;;;;;3.97;100.00;100124.72;6246014;23;20008;-76
2021/12/27 06:38:58;;;;;;;1.77;1.67;;;;;;;4.04;100.00;100126.25;6245068;23;20004;-76
2021/12/27 06:41:25;;;;;;;2.00;1.90;;;;;;;4.03;100.00;100124.53;6245885;23;20035;-76
2021/12/27 06:43:59;;;;;;;1.55;1.45;;;;;;;4.12;100.00;100116.38;6245321;23;20369;-77
2021/12/27 06:46:26;;;;;;;2.03;1.92;;;;;;;4.13;100.00;100118.09;6244915;23;20058;-76
2021/12/27 06:49:06;;;;;;;3.42;3.22;;;;;;;4.25;100.00;100117.78;6245715;23;20031;-77
2021/12/27 06:51:35;;;;;;;3.25;2.95;;;;;;;4.18;100.00;100121.47;6218347;23;20014;-78
2021/12/27 06:54:00;;;;;;;1.77;1.67;;;;;;;4.18;100.00;100118.84;6245363;23;20011;-78
2021/12/27 06:56:25;;;;;;;2.75;2.55;;;;;;;4.22;100.00;100123.13;6245139;23;20004;-76
2021/12/27 06:59:02;;;;;;;1.75;1.65;;;;;;;4.33;100.00;100129.78;6245610;23;20359;-77
2021/12/27 07:01:28;;;;;;;1.63;1.52;;;;;;;4.26;100.00;100122.09;6246059;23;20309;-78
2021/12/27 07:03:59;;;;;;;2.53;2.33;;;;;;;4.37;100.00;100126.16;6244700;23;20008;-78
2021/12/27 07:06:24;;;;;;;2.70;2.55;;;;;;;4.40;100.00;100122.56;6244744;23;20008;-77
2021/12/27 07:08:51;;;;;;;2.33;2.22;;;;;;;4.29;100.00;100115.00;6245064;23;20008;-77
2021/12/27 07:11:19;;;;;;;2.80;2.60;;;;;;;4.27;100.00;100106.28;6245408;23;20016;-77
2021/12/27 07:13:45;;;;;;;2.83;2.63;;;;;;;4.28;100.00;100107.16;6244439;23;20512;-77
2021/12/27 07:16:16;;;;;;;2.00;1.90;;;;;;;4.25;100.00;100097.63;6245380;23;20032;-78
2021/12/27 07:18:51;;;;;;;1.52;1.42;;;;;;;4.28;100.00;100109.78;6245443;23;20057;-81
2021/12/27 07:24:52;;;;;;;1.98;1.88;;;;;;;4.32;100.00;100095.66;6245711;23;20085;-78
2021/12/27 07:27:52;;;;;;;1.63;1.52;;;;;;;4.31;100.00;100104.44;6245334;23;20012;-78
2021/12/27 07:30:23;;;;;;;2.47;2.28;;;;;;;4.33;100.00;100100.03;6244721;22;20759;-78
2021/12/27 07:33:08;;;;;;;2.42;2.28;;;;;;;4.33;100.00;100094.75;6218289;23;20015;-79
2021/12/27 07:35:35;;;;;;;2.08;1.40;;;;;;;4.40;100.00;100089.28;6243254;23;20008;-79
2021/12/27 07:38:02;;;;;;;2.75;2.55;;;;;;;4.41;100.00;100092.78;6244183;23;20015;-79
2021/12/27 07:40:27;;;;;;;2.00;1.83;;;;;;;4.39;100.00;100089.31;6245578;23;20008;-82
2021/12/27 07:42:53;;;;;;;1.92;1.83;;;;;;;4.39;100.00;100103.34;6246125;23;20008;-81
2021/12/27 07:45:18;;;;;;;2.80;2.60;;;;;;;4.36;100.00;100107.81;6246150;23;20004;-79
2021/12/27 07:47:44;;;;;;;2.35;2.25;;;;;;;4.48;100.00;100107.44;6245754;23;20000;-82
2021/12/27 07:50:09;;;;;;;2.60;2.40;;;;;;;4.42;100.00;100115.50;6246476;23;20003;-81
2021/12/27 07:52:34;;;;;;;3.00;2.80;;;;;;;4.40;100.00;100115.56;6246632;23;20004;-80
2021/12/27 07:55:00;;;;;;;2.35;2.22;;;;;;;4.39;100.00;100099.84;6245337;23;20408;-80
2021/12/27 07:57:25;;;;;;;2.55;2.28;;;;;;;4.37;100.00;100102.50;6245658;23;20023;-80
2021/12/27 07:59:50;;;;;;;3.38;2.58;;;;;;;4.36;100.00;100113.06;6245474;23;20047;-79
2021/12/27 08:02:19;;;;;;;1.20;1.20;;;;;;;4.41;100.00;100111.16;6247398;23;20003;-79
2021/12/27 08:04:44;;;;;;;1.48;1.38;;;;;;;4.39;100.00;100108.59;6249451;23;20130;-79
2021/12/27 08:07:10;;;;;;;1.50;1.40;;;;;;;4.31;100.00;100101.81;6248630;23;20401;-79
2021/12/27 08:09:36;;;;;;;2.17;2.08;;;;;;;4.25;100.00;100102.88;6245696;23;20007;-80
2021/12/27 08:12:02;;;;;;;1.50;1.40;;;;;;;4.28;100.00;100104.53;6245409;23;20008;-80
2021/12/27 08:14:27;;;;;;;2.22;1.75;;;;;;;4.35;100.00;100100.81;6245968;23;20079;-80
2021/12/27 08:16:52;;;;;;;1.65;1.55;;;;;;;4.31;100.00;100102.69;6244961;23;20031;-80
2021/12/27 08:19:18;;;;;;;2.38;2.25;;;;;;;4.31;100.00;100105.31;6245294;23;20000;-83
2021/12/27 08:21:53;;;;;;;2.33;2.22;;;;;;;4.34;100.00;100099.09;6245471;23;20004;-83
2021/12/27 08:24:26;;;;;;;2.08;1.98;;;;;;;4.40;100.00;100098.91;6247151;23;20007;-82
2021/12/27 08:26:51;;;;;;;2.22;2.03;;;;;;;4.37;100.00;100084.09;6250273;23;20023;-82
2021/12/27 08:29:17;;;;;;;3.15;2.85;;;;;;;4.35;100.00;100085.03;6252395;23;20000;-80
2021/12/27 08:31:54;;;;;;;2.88;2.67;;;;;;;4.45;100.00;100089.13;6245323;23;20414;-86
2021/12/27 08:34:23;;;;;;;1.40;1.30;;;;;;;4.50;100.00;100081.97;6247418;23;20443;-84
2021/12/27 08:36:49;;;;;;;2.67;2.58;;;;;;;4.52;100.00;100082.78;6245389;23;20007;-80
2021/12/27 08:39:32;;;;;;;2.28;2.13;;;;;;;4.45;100.00;100074.22;6246072;23;20004;-82
2021/12/27 08:42:07;;;;;;;2.42;2.33;;;;;;;4.54;100.00;100075.69;6245909;23;20487;-81
2021/12/27 08:44:32;;;;;;;1.00;1.00;;;;;;;4.49;100.00;100069.75;6246410;23;20008;-81
2021/12/27 08:47:19;;;;;;;3.15;2.95;;;;;;;4.61;100.00;100088.63;6246377;23;20000;-86
2021/12/27 16:13:58;;;;;;;1.65;0.90;;;;;;;6.43;100.00;99741.22;6225474;22;20120;-80
2021/12/27 16:16:26;;;;;;;1.38;1.10;;;;;;;6.37;100.00;99752.03;6245770;23;20087;-80
2021/12/27 16:19:04;;;;;;;1.67;1.58;;;;;;;6.28;100.00;99752.44;6246175;23;20006;-80
2021/12/27 16:21:30;;;;;;;1.92;1.83;;;;;;;6.32;100.00;99755.81;6245768;23;20416;-80
2021/12/27 16:23:55;;;;;;;1.52;1.08;;;;;;;6.21;100.00;99754.47;6245609;23;20011;-80
2021/12/27 16:26:36;;;;;;;2.38;1.38;;;;;;;6.29;100.00;99762.06;6246465;23;20081;-81
2021/12/27 16:29:09;;;;;;;1.00;1.00;;;;;;;6.29;100.00;99754.16;6245169;23;20434;-80
2021/12/27 16:31:43;;;;;;;1.80;1.70;;;;;;;6.31;100.00;99764.63;6245904;23;20098;-79
2021/12/27 16:34:12;;;;;;;0.52;0.52;;;;;;;6.27;100.00;99760.41;6245967;23;20456;-78
2021/12/27 16:36:38;;;;;;;0.77;0.77;;;;;;;6.29;100.00;99762.06;6245937;23;20007;-80
2021/12/27 16:39:30;;;;;;;1.08;1.05;;;;;;;6.30;100.00;99761.16;6246048;23;20045;-81
2021/12/27 16:41:55;;;;;;;2.08;1.55;;;;;;;6.22;100.00;99761.44;6245786;23;20004;-81
2021/12/27 16:44:21;;;;;;;1.80;1.38;;;;;;;6.35;100.00;99755.69;6245210;23;20015;-80
2021/12/27 16:46:46;;;;;;;2.40;2.20;;;;;;;6.35;100.00;99760.94;6244153;22;20004;-80
2021/12/27 16:49:11;;;;;;;1.67;1.58;;;;;;;6.29;100.00;99761.22;6246677;23;20054;-80
2021/12/27 16:51:37;;;;;;;1.42;1.33;;;;;;;6.28;100.00;99759.47;6245988;23;20015;-80
2021/12/27 16:54:04;;;;;;;1.50;1.40;;;;;;;6.27;100.00;99749.88;6245878;23;20011;-81
2021/12/27 16:56:30;;;;;;;0.73;0.73;;;;;;;6.37;100.00;99757.31;6245543;23;20572;-81
2021/12/27 16:58:55;;;;;;;1.52;1.42;;;;;;;6.34;100.00;99761.84;6245932;23;20032;-82
2021/12/27 17:01:21;;;;;;;1.10;1.08;;;;;;;6.31;100.00;99756.72;6246381;23;20000;-80
2021/12/27 17:03:47;;;;;;;1.90;1.52;;;;;;;6.22;100.00;99750.91;6245559;23;20004;-80
2021/12/27 17:06:13;;;;;;;1.23;1.13;;;;;;;6.26;100.00;99753.44;6245787;23;20087;-81
2021/12/27 17:08:38;;;;;;;1.35;1.25;;;;;;;6.35;100.00;99742.50;6245828;23;20028;-80
2021/12/27 17:11:05;;;;;;;1.13;1.10;;;;;;;6.32;100.00;99758.44;6245413;23;20000;-80
2021/12/27 17:13:32;;;;;;;2.00;1.90;;;;;;;6.30;100.00;99765.56;6245858;23;20324;-80
2021/12/27 17:15:57;;;;;;;1.55;1.25;;;;;;;6.29;100.00;99755.94;6245481;23;20008;-81
2021/12/27 17:18:23;;;;;;;1.55;1.45;;;;;;;6.32;100.00;99753.19;6246638;23;20004;-82
2021/12/27 17:20:51;;;;;;;2.03;1.80;;;;;;;6.26;100.00;99751.63;6246089;23;20087;-81
2021/12/27 17:23:19;;;;;;;3.05;1.13;;;;;;;6.30;100.00;99755.00;6246464;23;20031;-80
2021/12/27 17:25:44;;;;;;;1.23;1.13;;;;;;;6.32;100.00;99746.09;6245296;23;20088;-80
2021/12/27 17:28:11;;;;;;;2.22;1.92;;;;;;;6.45;100.00;99742.03;6246232;23;20007;-81
2021/12/27 17:30:39;;;;;;;1.77;1.60;;;;;;;6.38;100.00;99745.88;6246226;23;20062;-80
2021/12/27 17:33:05;;;;;;;1.33;1.23;;;;;;;6.54;100.00;99738.13;6245348;23;20007;-81
2021/12/27 17:35:31;;;;;;;1.63;1.52;;;;;;;6.43;100.00;99738.59;6246073;23;20135;-80
2021/12/27 17:37:57;;;;;;;1.27;1.17;;;;;;;6.49;100.00;99737.47;6245075;23;20008;-79
2021/12/27 17:40:23;;;;;;;1.65;1.55;;;;;;;6.58;100.00;99740.56;6244176;23;19996;-82
2021/12/27 17:42:49;;;;;;;1.45;1.30;;;;;;;6.56;100.00;99742.41;6244791;23;20077;-81
2021/12/27 17:45:15;;;;;;;3.42;2.55;;;;;;;6.54;100.00;99738.97;6243178;23;20016;-81
2021/12/27 17:47:43;;;;;;;1.27;1.17;;;;;;;6.45;100.00;99738.50;6217988;23;20000;-81
2021/12/27 17:50:09;;;;;;;0.95;0.95;;;;;;;6.39;100.00;99733.50;6245463;23;20320;-81
2021/12/27 17:52:35;;;;;;;1.40;1.30;;;;;;;6.41;100.00;99735.19;6243833;23;20008;-80
2021/12/27 17:55:00;;;;;;;1.63;1.52;;;;;;;6.46;100.00;99727.06;6244613;23;20000;-80
2021/12/27 17:57:26;;;;;;;1.63;1.10;;;;;;;6.57;100.00;99732.72;6243477;23;20327;-80
2021/12/27 17:59:51;;;;;;;1.52;1.42;;;;;;;6.55;100.00;99731.94;6243871;23;20008;-80
2021/12/27 18:02:17;;;;;;;3.20;1.10;;;;;;;6.61;100.00;99726.38;6244591;23;20000;-81
2021/12/27 18:04:42;;;;;;;1.17;1.02;;;;;;;6.53;100.00;99724.09;6245406;23;20001;-81
2021/12/27 18:07:07;;;;;;;1.20;1.10;;;;;;;6.54;100.00;99717.88;6245763;23;20004;-81
2021/12/27 18:09:35;;;;;;;2.13;1.52;;;;;;;6.48;100.00;99706.72;6245458;23;20328;-80
2021/12/27 18:12:02;;;;;;;2.25;2.05;;;;;;;6.66;100.00;99716.47;6245571;23;20007;-80
2021/12/27 18:14:27;;;;;;;1.83;1.73;;;;;;;6.58;100.00;99713.31;6245478;23;20005;-80
2021/12/27 18:16:52;;;;;;;4.88;1.38;;;;;;;6.66;100.00;99717.34;6245819;23;20035;-80
2021/12/27 18:19:18;;;;;;;1.30;1.20;;;;;;;6.75;100.00;99708.16;6244941;23;20035;-80
2021/12/27 18:21:43;;;;;;;1.67;1.30;;;;;;;6.71;100.00;99717.13;6245724;23;20053;-79
2021/12/27 18:24:09;;;;;;;1.67;1.58;;;;;;;6.67;100.00;99712.91;6247740;23;20012;-80
2021/12/27 18:26:37;;;;;;;1.05;1.05;;;;;;;6.69;100.00;99713.72;6247077;23;20083;-81
2021/12/27 18:29:03;;;;;;;1.20;1.13;;;;;;;6.78;100.00;99714.16;6247562;23;20004;-80
2021/12/27 18:31:30;;;;;;;1.48;1.25;;;;;;;6.68;100.00;99714.63;6246745;23;20016;-82
2021/12/27 18:33:55;;;;;;;1.30;1.20;;;;;;;6.80;100.00;99719.34;6246858;23;20026;-81
2021/12/27 18:36:21;;;;;;;1.63;1.52;;;;;;;6.84;100.00;99716.50;6247455;23;20027;-81
2021/12/27 18:38:47;;;;;;;1.85;1.00;;;;;;;6.82;100.00;99722.78;6246786;23;20004;-80
2021/12/27 18:41:12;;;;;;;2.42;1.63;;;;;;;6.81;100.00;99715.78;6245968;23;20007;-80
2021/12/27 18:43:39;;;;;;;1.05;0.90;;;;;;;6.86;100.00;99717.31;6246063;23;20011;-80
2021/12/27 18:46:04;;;;;;;1.48;1.38;;;;;;;6.93;100.00;99720.53;6246387;23;20014;-79
2021/12/27 18:48:30;;;;;;;2.38;1.92;;;;;;;6.93;100.00;99715.25;6245628;23;20012;-80
2021/12/27 18:50:56;;;;;;;1.20;1.10;;;;;;;6.98;100.00;99710.63;6246072;23;20383;-79
2021/12/27 18:53:21;;;;;;;1.08;1.02;;;;;;;6.98;100.00;99716.72;6245433;23;20004;-78
2021/12/27 18:55:48;;;;;;;1.83;1.73;;;;;;;7.13;100.00;99717.81;6245659;23;20008;-80
2021/12/27 18:58:14;;;;;;;1.15;1.10;;;;;;;7.08;100.00;99703.97;6247017;23;20027;-81
2021/12/27 19:00:41;;;;;;;4.10;1.90;;;;;;;7.10;100.00;99707.41;6246362;23;20012;-80
2021/12/27 19:03:09;;;;;;;1.27;1.20;;;;;;;7.18;100.00;99705.25;6244773;23;20008;-79
2021/12/27 19:05:35;;;;;;;1.20;1.10;;;;;;;7.18;100.00;99702.63;6245662;23;20296;-79
2021/12/27 19:08:00;;;;;;;1.75;1.08;;;;;;;7.16;100.00;99701.81;6244229;23;20008;-80
2021/12/27 19:10:26;;;;;;;1.52;1.05;;;;;;;7.10;100.00;99703.00;6244742;23;20000;-80
2021/12/27 19:12:52;;;;;;;1.45;1.30;;;;;;;7.14;100.00;99703.66;6245615;23;20143;-80
2021/12/27 19:15:32;;;;;;;1.20;1.10;;;;;;;7.11;100.00;99699.41;6245946;23;20019;-80
2021/12/27 19:17:58;;;;;;;1.00;0.90;;;;;;;7.14;100.00;99693.97;6246729;23;20004;-80
2021/12/27 19:20:25;;;;;;;5.00;1.27;;;;;;;7.25;100.00;99694.34;6246201;23;20106;-79
2021/12/27 19:22:51;;;;;;;0.82;0.82;;;;;;;7.20;100.00;99696.31;6246519;23;20008;-79
2021/12/27 19:25:28;;;;;;;1.50;1.30;;;;;;;7.23;100.00;99696.19;6246295;23;20343;-79
2021/12/27 19:27:53;;;;;;;1.17;1.08;;;;;;;7.20;100.00;99692.84;6245985;23;20079;-79
2021/12/27 19:30:19;;;;;;;0.88;0.85;;;;;;;7.19;100.00;99689.34;6246592;23;20032;-78
2021/12/27 19:32:45;;;;;;;0.77;0.73;;;;;;;7.22;100.00;99690.97;6244816;23;20019;-79
2021/12/27 19:35:13;;;;;;;1.00;1.00;;;;;;;7.15;100.00;99686.94;6218855;23;20416;-79
2021/12/27 19:37:39;;;;;;;1.40;1.27;;;;;;;7.22;100.00;99683.06;6246064;23;19996;-79
2021/12/27 19:40:06;;;;;;;2.35;1.20;;;;;;;7.22;100.00;99690.97;6245207;23;20447;-78
2021/12/27 19:42:31;;;;;;;2.38;1.52;;;;;;;7.25;100.00;99685.53;6245539;23;20027;-79
2021/12/27 19:44:56;;;;;;;1.55;1.45;;;;;;;7.41;100.00;99691.81;6245626;23;20032;-78
2021/12/27 19:47:22;;;;;;;1.63;1.42;;;;;;;7.36;100.00;99683.25;6245052;23;20343;-79
2021/12/27 19:49:47;;;;;;;2.70;1.30;;;;;;;7.37;100.00;99691.13;6245240;23;20115;-79
2021/12/27 19:52:14;;;;;;;2.22;2.03;;;;;;;7.45;100.00;99688.09;6244982;23;20091;-79
2021/12/27 19:54:40;;;;;;;1.95;1.85;;;;;;;7.46;100.00;99695.09;6245914;23;20035;-79